createdAt,value
2023-02-16T00:00:57.094Z,17.83
2023-02-16T00:03:25.111Z,17.07
2023-02-16T00:05:53.182Z,17.83
2023-02-16T00:08:21.194Z,17.87
2023-02-16T00:11:04.761Z,17.00
2023-02-16T00:13:48.951Z,16.97
2023-02-16T00:16:17.796Z,17.20
2023-02-16T00:18:46.271Z,17.70
2023-02-16T00:21:14.378Z,17.90
2023-02-16T00:23:42.444Z,16.33
2023-02-16T00:26:15.625Z,16.57
2023-02-16T00:28:44.064Z,17.63
2023-02-16T00:31:17.023Z,16.27
2023-02-16T00:33:45.043Z,16.40
2023-02-16T00:36:13.028Z,16.57
2023-02-16T00:38:40.976Z,17.70
2023-02-16T00:41:32.209Z,15.13
2023-02-16T00:44:01.608Z,16.53
2023-02-16T00:46:29.659Z,16.47
2023-02-16T00:48:57.618Z,17.47
2023-02-16T00:51:26.566Z,16.47
2023-02-16T00:53:54.732Z,16.70
2023-02-16T00:56:22.918Z,17.13
2023-02-16T00:58:52.231Z,16.13
2023-02-16T01:01:23.082Z,15.73
2023-02-16T01:03:51.136Z,16.37
2023-02-16T01:06:36.415Z,16.13
2023-02-16T01:09:30.089Z,16.63
2023-02-16T01:11:58.280Z,16.60
2023-02-16T01:14:26.442Z,16.23
2023-02-16T01:16:55.808Z,17.23
2023-02-16T01:19:23.712Z,16.03
2023-02-16T01:21:51.701Z,15.27
2023-02-16T01:24:19.823Z,15.40
2023-02-16T01:26:49.132Z,15.73
2023-02-16T01:29:18.092Z,14.90
2023-02-16T01:31:46.429Z,15.83
2023-02-16T01:34:15.972Z,15.90
2023-02-16T01:36:45.123Z,14.37
2023-02-16T01:39:13.642Z,16.57
2023-02-16T01:41:55.899Z,15.93
2023-02-16T01:44:25.490Z,16.00
2023-02-16T01:46:56.382Z,14.80
2023-02-16T01:49:26.236Z,15.83
2023-02-16T01:51:57.761Z,16.57
2023-02-16T01:54:43.444Z,15.37
2023-02-16T01:57:15.232Z,16.13
2023-02-16T02:00:04.120Z,16.97
2023-02-16T02:02:35.719Z,14.77
2023-02-16T02:05:25.961Z,15.63
2023-02-16T02:07:57.407Z,14.37
2023-02-16T02:10:27.327Z,15.67
2023-02-16T02:12:57.751Z,15.00
2023-02-16T02:15:28.294Z,16.33
2023-02-16T02:17:56.210Z,14.90
2023-02-16T02:20:49.877Z,13.73
2023-02-16T02:23:34.271Z,14.73
2023-02-16T02:26:19.013Z,15.00
2023-02-16T02:28:53.278Z,16.27
2023-02-16T02:31:26.336Z,14.70
2023-02-16T02:33:58.813Z,15.03
2023-02-16T02:36:30.244Z,16.30
2023-02-16T02:39:02.925Z,15.70
2023-02-16T02:41:47.432Z,15.50
2023-02-16T02:44:22.191Z,15.40
2023-02-16T02:46:50.239Z,15.13
2023-02-16T02:49:18.191Z,16.00
2023-02-16T02:51:46.170Z,15.07
2023-02-16T02:54:33.260Z,15.73
2023-02-16T02:57:19.288Z,15.10
2023-02-16T03:00:07.592Z,15.90
2023-02-16T03:02:37.253Z,16.37
2023-02-16T03:05:06.596Z,15.53
2023-02-16T03:07:50.166Z,15.70
2023-02-16T03:10:36.702Z,14.90
2023-02-16T03:13:05.684Z,16.10
2023-02-16T03:15:36.223Z,15.73
2023-02-16T03:18:21.972Z,14.43
2023-02-16T03:21:07.569Z,13.80
2023-02-16T03:23:52.968Z,14.27
2023-02-16T03:26:38.587Z,14.93
2023-02-16T03:29:22.818Z,15.37
2023-02-16T03:31:52.978Z,14.53
2023-02-16T03:34:21.599Z,14.97
2023-02-16T03:36:50.615Z,15.83
2023-02-16T03:39:19.259Z,15.30
2023-02-16T03:41:49.275Z,14.60
2023-02-16T03:44:17.417Z,13.93
2023-02-16T03:46:45.813Z,15.73
2023-02-16T03:49:15.415Z,15.33
2023-02-16T03:51:43.497Z,15.67
2023-02-16T03:54:11.514Z,13.83
2023-02-16T03:56:39.696Z,14.40
2023-02-16T03:59:07.708Z,15.27
2023-02-16T04:01:35.897Z,15.53
2023-02-16T04:04:04.187Z,15.87
2023-02-16T04:06:33.691Z,15.37
2023-02-16T04:09:02.022Z,16.47
2023-02-16T04:11:47.460Z,16.93
2023-02-16T04:14:15.463Z,15.37
2023-02-16T04:16:43.464Z,16.47
2023-02-16T04:19:11.431Z,17.00
2023-02-16T04:21:40.858Z,18.27
2023-02-16T04:24:09.013Z,17.20
2023-02-16T04:26:37.005Z,17.03
2023-02-16T04:29:04.973Z,16.43
2023-02-16T04:31:33.126Z,15.73
2023-02-16T04:34:01.151Z,16.27
2023-02-16T04:36:29.120Z,16.23
2023-02-16T04:38:58.539Z,16.90
2023-02-16T04:41:26.933Z,18.37
2023-02-16T04:43:54.882Z,16.40
2023-02-16T04:46:22.948Z,17.77
2023-02-16T04:48:50.949Z,16.33
2023-02-16T04:51:19.398Z,16.47
2023-02-16T04:53:47.336Z,17.13
2023-02-16T04:56:16.836Z,16.47
2023-02-16T04:58:44.783Z,15.43
2023-02-16T05:01:20.235Z,15.80
2023-02-16T05:03:48.530Z,16.37
2023-02-16T05:06:16.500Z,16.67
2023-02-16T05:08:45.037Z,15.67
2023-02-16T05:11:30.428Z,16.40
2023-02-16T05:14:17.502Z,16.97
2023-02-16T05:16:45.777Z,17.37
2023-02-16T05:19:14.154Z,16.93
2023-02-16T05:21:42.096Z,17.10
2023-02-16T05:24:11.613Z,15.80
2023-02-16T05:26:40.512Z,16.03
2023-02-16T05:29:09.874Z,16.37
2023-02-16T05:31:38.824Z,16.07
2023-02-16T05:34:06.969Z,15.57
2023-02-16T05:36:34.893Z,15.37
2023-02-16T05:39:02.846Z,15.67
2023-02-16T05:41:30.805Z,16.50
2023-02-16T05:43:59.670Z,16.93
2023-02-16T05:46:29.823Z,16.83
2023-02-16T05:48:57.806Z,16.47
2023-02-16T05:51:25.714Z,15.77
2023-02-16T05:53:53.677Z,16.90
2023-02-16T05:56:21.948Z,16.37
2023-02-16T05:58:50.310Z,15.63
2023-02-16T06:01:18.485Z,15.07
2023-02-16T06:03:48.239Z,14.77
2023-02-16T06:06:16.362Z,15.20
2023-02-16T06:08:44.302Z,15.43
2023-02-16T06:11:32.547Z,15.80
2023-02-16T06:14:01.844Z,15.60
2023-02-16T06:16:30.150Z,14.17
2023-02-16T06:18:59.607Z,15.07
2023-02-16T06:21:27.966Z,15.30
2023-02-16T06:23:56.131Z,16.13
2023-02-16T06:26:24.236Z,15.87
2023-02-16T06:28:52.201Z,16.33
2023-02-16T06:31:20.663Z,16.60
2023-02-16T06:33:49.038Z,14.43
2023-02-16T06:36:19.133Z,16.33
2023-02-16T06:38:49.590Z,16.37
2023-02-16T06:41:31.838Z,15.23
2023-02-16T06:44:00.437Z,15.17
2023-02-16T06:46:28.884Z,14.93
2023-02-16T06:48:57.228Z,15.73
2023-02-16T06:51:26.953Z,16.23
2023-02-16T06:53:54.978Z,15.10
2023-02-16T06:56:23.086Z,14.53
2023-02-16T06:58:51.310Z,17.13
2023-02-16T07:01:23.505Z,16.50
2023-02-16T07:03:51.911Z,16.10
2023-02-16T07:06:19.893Z,15.27
2023-02-16T07:08:49.280Z,16.50
2023-02-16T07:11:18.077Z,18.90
2023-02-16T07:13:46.050Z,19.47
2023-02-16T07:16:14.507Z,19.27
2023-02-16T07:18:45.018Z,19.10
2023-02-16T07:21:13.145Z,18.33
2023-02-16T07:23:41.092Z,17.17
2023-02-16T07:26:10.938Z,16.07
2023-02-16T07:28:39.067Z,18.43
2023-02-16T07:31:09.504Z,18.13
2023-02-16T07:33:37.725Z,18.37
2023-02-16T07:36:06.061Z,19.10
2023-02-16T07:38:34.041Z,17.90
2023-02-16T07:41:02.478Z,18.27
2023-02-16T07:43:32.150Z,16.73
2023-02-16T07:46:00.193Z,19.20
2023-02-16T07:48:28.462Z,16.03
2023-02-16T07:50:56.427Z,17.63
2023-02-16T07:53:24.369Z,17.00
2023-02-16T07:55:52.408Z,16.43
2023-02-16T07:58:28.411Z,17.10
2023-02-16T08:00:58.611Z,16.60
2023-02-16T08:03:26.760Z,17.23
2023-02-16T08:05:54.748Z,26.07
2023-02-16T08:08:22.791Z,18.80
2023-02-16T08:10:50.797Z,17.47
2023-02-16T08:13:18.741Z,16.90
2023-02-16T08:15:46.974Z,17.90
2023-02-16T08:18:16.567Z,19.30
2023-02-16T08:21:02.651Z,17.60
2023-02-16T08:23:31.782Z,17.57
2023-02-16T08:26:00.257Z,18.60
2023-02-16T08:28:29.664Z,17.50
2023-02-16T08:30:57.875Z,17.43
2023-02-16T08:33:27.280Z,17.70
2023-02-16T08:35:55.235Z,16.23
2023-02-16T08:38:23.197Z,17.07
2023-02-16T08:40:51.622Z,17.57
2023-02-16T08:43:19.678Z,16.57
2023-02-16T08:45:47.947Z,18.97
2023-02-16T08:48:16.938Z,16.83
2023-02-16T08:50:53.786Z,16.70
2023-02-16T08:53:23.396Z,14.33
2023-02-16T08:55:55.974Z,16.60
2023-02-16T08:58:24.558Z,15.97
2023-02-16T09:00:52.595Z,15.30
2023-02-16T09:03:20.930Z,16.77
2023-02-16T09:05:50.759Z,16.23
2023-02-16T09:08:18.757Z,17.13
2023-02-16T09:10:46.993Z,16.33
2023-02-16T09:13:16.354Z,16.10
2023-02-16T09:15:44.522Z,16.50
2023-02-16T09:18:13.002Z,16.43
2023-02-16T09:20:41.966Z,21.27
2023-02-16T09:23:13.091Z,19.00
2023-02-16T09:25:42.119Z,18.17
2023-02-16T09:28:11.881Z,18.23
2023-02-16T09:30:40.404Z,16.70
2023-02-16T09:33:08.575Z,15.97
2023-02-16T09:35:39.756Z,18.43
2023-02-16T09:38:11.569Z,18.13
2023-02-16T09:40:43.232Z,16.77
2023-02-16T09:43:17.938Z,18.63
2023-02-16T09:45:49.250Z,18.03
2023-02-16T09:48:23.331Z,18.30
2023-02-16T09:50:54.939Z,18.13
2023-02-16T09:53:24.586Z,18.47
2023-02-16T09:55:59.766Z,17.53
2023-02-16T09:58:32.968Z,16.67
2023-02-16T10:01:05.861Z,17.30
2023-02-16T10:03:40.468Z,16.67
2023-02-16T10:06:19.750Z,17.20
2023-02-16T10:08:50.799Z,16.90
2023-02-16T10:11:45.847Z,16.13
2023-02-16T10:14:24.871Z,15.80
2023-02-16T10:16:57.040Z,18.37
2023-02-16T10:19:27.544Z,15.73
2023-02-16T10:21:58.010Z,27.80
2023-02-16T10:24:27.852Z,40.23
2023-02-16T10:27:02.860Z,18.90
2023-02-16T10:29:31.323Z,17.20
2023-02-16T10:32:05.017Z,16.17
2023-02-16T10:34:38.325Z,15.20
2023-02-16T10:37:16.796Z,16.63
2023-02-16T10:39:47.389Z,22.40
2023-02-16T10:42:21.010Z,18.03
2023-02-16T10:44:50.513Z,14.50
2023-02-16T10:47:24.856Z,13.63
2023-02-16T10:49:53.337Z,13.67
2023-02-16T10:52:21.766Z,14.07
2023-02-16T10:54:49.976Z,14.17
2023-02-16T10:57:25.444Z,13.93
2023-02-16T10:59:54.637Z,13.13
2023-02-16T11:02:25.569Z,12.30
2023-02-16T11:04:54.510Z,13.50
2023-02-16T11:07:23.558Z,14.70
2023-02-16T11:09:53.269Z,14.50
2023-02-16T11:12:28.694Z,13.30
2023-02-16T11:14:58.715Z,12.53
2023-02-16T11:17:28.013Z,13.43
2023-02-16T11:20:00.057Z,13.30
2023-02-16T11:22:31.531Z,13.67
2023-02-16T11:25:15.401Z,14.20
2023-02-16T11:27:51.205Z,12.07
2023-02-16T11:30:22.833Z,12.27
2023-02-16T11:32:52.009Z,13.27
2023-02-16T11:35:20.415Z,11.77
2023-02-16T11:37:48.548Z,11.63
2023-02-16T11:40:21.097Z,12.77
2023-02-16T11:42:51.998Z,12.70
2023-02-16T11:45:25.966Z,12.47
2023-02-16T11:47:54.936Z,11.50
2023-02-16T11:50:26.040Z,11.60
2023-02-16T11:52:55.253Z,11.97
2023-02-16T11:55:27.143Z,11.37
2023-02-16T11:57:57.337Z,11.67
2023-02-16T12:00:26.930Z,11.73
2023-02-16T12:03:15.954Z,12.17
2023-02-16T12:05:53.173Z,10.97
2023-02-16T12:08:35.861Z,10.70
2023-02-16T12:11:11.165Z,11.23
2023-02-16T12:13:45.248Z,11.70
2023-02-16T12:16:19.983Z,9.57
2023-02-16T12:18:52.450Z,10.77
2023-02-16T12:21:24.160Z,11.10
2023-02-16T12:23:57.045Z,10.70
2023-02-16T12:26:34.693Z,10.40
2023-02-16T12:29:11.320Z,10.83
2023-02-16T12:31:48.791Z,11.33
2023-02-16T12:34:22.772Z,9.63
2023-02-16T12:36:58.675Z,10.87
2023-02-16T12:39:31.304Z,10.93
2023-02-16T12:42:06.374Z,10.90
2023-02-16T12:44:37.594Z,10.60
2023-02-16T12:47:08.340Z,10.40
2023-02-16T12:49:43.946Z,10.43
2023-02-16T12:52:16.523Z,10.27
2023-02-16T12:54:46.549Z,9.40
2023-02-16T12:57:16.292Z,9.77
2023-02-16T12:59:49.523Z,10.40
2023-02-16T13:02:19.671Z,9.67
2023-02-16T13:04:50.469Z,10.00
2023-02-16T13:07:23.029Z,9.23
2023-02-16T13:09:53.705Z,9.63
2023-02-16T13:12:27.525Z,9.17
2023-02-16T13:15:02.350Z,8.83
2023-02-16T13:17:33.365Z,10.73
2023-02-16T13:20:03.355Z,9.83
2023-02-16T13:22:53.153Z,9.63
2023-02-16T13:25:35.326Z,9.90
2023-02-16T13:28:08.997Z,8.00
2023-02-16T13:30:56.479Z,7.13
2023-02-16T13:33:41.048Z,8.00
2023-02-16T13:36:16.318Z,8.43
2023-02-16T13:38:56.076Z,7.50
2023-02-16T13:41:36.547Z,9.73
2023-02-16T13:44:04.913Z,8.00
2023-02-16T13:46:35.590Z,7.33
2023-02-16T13:49:03.828Z,10.20
2023-02-16T13:51:41.862Z,7.73
2023-02-16T13:54:23.266Z,8.27
2023-02-16T13:56:51.665Z,7.47
2023-02-16T13:59:34.376Z,7.30
2023-02-16T14:02:03.957Z,7.83
2023-02-16T14:04:52.698Z,8.23
2023-02-16T14:07:32.358Z,8.03
2023-02-16T14:10:00.318Z,8.00
2023-02-16T14:12:31.475Z,7.97
2023-02-16T14:15:05.092Z,8.00
2023-02-16T14:17:35.511Z,7.13
2023-02-16T14:20:05.415Z,7.63
2023-02-16T14:22:35.939Z,6.90
2023-02-16T14:25:05.466Z,7.43
2023-02-16T14:27:47.166Z,8.07
2023-02-16T14:30:21.749Z,10.13
2023-02-16T14:32:57.715Z,8.87
2023-02-16T14:35:28.327Z,8.80
2023-02-16T14:37:58.151Z,8.53
2023-02-16T14:40:41.343Z,8.03
2023-02-16T14:43:16.973Z,7.87
2023-02-16T14:46:00.058Z,7.67
2023-02-16T14:48:36.002Z,7.80
2023-02-16T14:51:15.640Z,8.50
2023-02-16T14:54:01.473Z,8.43
2023-02-16T14:56:38.472Z,7.87
2023-02-16T14:59:08.083Z,6.87
2023-02-16T15:01:40.806Z,7.40
2023-02-16T15:04:12.286Z,7.23
2023-02-16T15:06:42.849Z,7.87
2023-02-16T15:09:15.995Z,8.50
2023-02-16T15:12:03.061Z,7.20
2023-02-16T15:14:32.691Z,8.53
2023-02-16T15:17:00.710Z,7.87
2023-02-16T15:19:32.542Z,7.80
2023-02-16T15:22:10.537Z,8.47
2023-02-16T15:24:38.554Z,8.23
2023-02-16T15:27:06.578Z,8.03
2023-02-16T15:29:34.500Z,7.73
2023-02-16T15:32:02.532Z,7.87
2023-02-16T15:34:34.932Z,7.90
2023-02-16T15:37:03.905Z,7.03
2023-02-16T15:39:43.605Z,7.33
2023-02-16T15:42:22.413Z,7.23
2023-02-16T15:44:50.790Z,6.70
2023-02-16T15:47:22.751Z,5.87
2023-02-16T15:49:52.721Z,5.23
2023-02-16T15:52:22.826Z,4.57
2023-02-16T15:54:51.266Z,4.87
2023-02-16T15:57:21.751Z,5.03
2023-02-16T15:59:50.476Z,4.40
2023-02-16T16:02:19.596Z,5.17
2023-02-16T16:04:48.548Z,4.73
2023-02-16T16:07:20.100Z,5.03
2023-02-16T16:09:48.433Z,4.73
2023-02-16T16:12:18.730Z,5.00
2023-02-16T16:14:50.788Z,5.00
2023-02-16T16:17:20.905Z,6.20
2023-02-16T16:19:48.961Z,5.63
2023-02-16T16:22:30.496Z,5.30
2023-02-16T16:24:58.473Z,5.60
2023-02-16T16:27:30.920Z,5.60
2023-02-16T16:30:11.496Z,5.90
2023-02-16T16:32:39.522Z,5.70
2023-02-16T16:35:19.923Z,5.47
2023-02-16T16:37:50.633Z,5.73
2023-02-16T16:40:23.519Z,5.80
2023-02-16T16:43:07.124Z,5.80
2023-02-16T16:45:36.414Z,5.47
2023-02-16T16:48:10.189Z,5.43
2023-02-16T16:50:39.800Z,6.30
2023-02-16T16:53:26.436Z,6.13
2023-02-16T16:55:55.796Z,5.50
2023-02-16T16:58:23.770Z,5.67
2023-02-16T17:00:51.896Z,5.73
2023-02-16T17:03:20.583Z,8.33
2023-02-16T17:05:48.723Z,8.63
2023-02-16T17:08:16.646Z,7.30
2023-02-16T17:10:44.912Z,5.43
2023-02-16T17:13:16.771Z,5.77
2023-02-16T17:15:46.260Z,6.30
2023-02-16T17:18:16.096Z,7.77
2023-02-16T17:20:44.376Z,6.03
2023-02-16T17:23:12.868Z,5.93
2023-02-16T17:25:40.877Z,5.53
2023-02-16T17:28:09.719Z,5.50
2023-02-16T17:30:39.406Z,5.97
2023-02-16T17:33:08.302Z,5.97
2023-02-16T17:35:36.753Z,6.30
2023-02-16T17:38:08.006Z,5.83
2023-02-16T17:40:35.976Z,5.70
2023-02-16T17:43:04.149Z,5.67
2023-02-16T17:45:32.223Z,5.83
2023-02-16T17:48:01.715Z,6.03
2023-02-16T17:50:30.461Z,13.93
2023-02-16T17:52:58.541Z,9.60
2023-02-16T17:55:26.577Z,8.57
2023-02-16T17:57:55.922Z,7.33
2023-02-16T18:00:23.993Z,6.87
2023-02-16T18:02:51.932Z,6.43
2023-02-16T18:05:21.367Z,7.13
2023-02-16T18:07:49.280Z,6.97
2023-02-16T18:10:18.354Z,7.10
2023-02-16T18:12:46.342Z,7.17
2023-02-16T18:15:14.293Z,6.43
2023-02-16T18:17:42.227Z,7.30
2023-02-16T18:20:10.564Z,8.60
2023-02-16T18:22:39.964Z,9.90
2023-02-16T18:25:08.130Z,9.10
2023-02-16T18:27:36.127Z,8.30
2023-02-16T18:30:04.357Z,8.17
2023-02-16T18:32:32.402Z,8.57
2023-02-16T18:35:00.389Z,8.00
2023-02-16T18:37:28.440Z,8.00
2023-02-16T18:39:57.827Z,7.13
2023-02-16T18:42:25.855Z,8.10
2023-02-16T18:44:53.851Z,8.20
2023-02-16T18:47:22.026Z,8.37
2023-02-16T18:49:50.708Z,8.27
2023-02-16T18:52:18.818Z,8.07
2023-02-16T18:54:47.048Z,13.00
2023-02-16T18:57:16.610Z,9.73
2023-02-16T18:59:44.614Z,16.37
2023-02-16T19:02:12.869Z,10.73
2023-02-16T19:04:40.939Z,8.93
2023-02-16T19:07:08.982Z,8.53
2023-02-16T19:09:36.957Z,8.57
2023-02-16T19:12:05.280Z,8.83
2023-02-16T19:14:34.691Z,8.37
2023-02-16T19:17:02.631Z,9.23
2023-02-16T19:19:33.293Z,8.67
2023-02-16T19:22:01.267Z,8.53
2023-02-16T19:24:29.189Z,7.77
2023-02-16T19:26:57.187Z,9.47
2023-02-16T19:29:25.197Z,8.37
2023-02-16T19:31:54.729Z,8.83
2023-02-16T19:34:22.804Z,9.53
2023-02-16T19:36:50.779Z,9.13
2023-02-16T19:39:18.756Z,9.37
2023-02-16T19:41:46.705Z,8.97
2023-02-16T19:44:15.380Z,10.03
2023-02-16T19:46:44.079Z,9.17
2023-02-16T19:49:15.305Z,10.30
2023-02-16T19:51:44.007Z,10.67
2023-02-16T19:54:11.977Z,9.97
2023-02-16T19:56:40.798Z,10.00
2023-02-16T19:59:09.216Z,9.60
2023-02-16T20:01:37.175Z,9.90
2023-02-16T20:04:05.352Z,10.70
2023-02-16T20:06:37.311Z,10.17
2023-02-16T20:09:05.480Z,11.20
2023-02-16T20:11:33.856Z,11.50
2023-02-16T20:14:02.280Z,11.23
2023-02-16T20:16:30.641Z,13.00
2023-02-16T20:18:59.016Z,12.63
2023-02-16T20:21:27.801Z,13.13
2023-02-16T20:23:58.193Z,11.17
2023-02-16T20:26:27.012Z,11.50
2023-02-16T20:28:54.993Z,12.33
2023-02-16T20:31:24.291Z,12.17
2023-02-16T20:33:52.368Z,11.87
2023-02-16T20:36:20.378Z,10.80
2023-02-16T20:38:48.319Z,10.80
2023-02-16T20:41:18.000Z,12.60
2023-02-16T20:43:46.100Z,10.97
2023-02-16T20:46:14.477Z,11.60
2023-02-16T20:48:42.883Z,10.50
2023-02-16T20:51:12.127Z,10.77
2023-02-16T20:53:40.143Z,10.43
2023-02-16T20:56:09.872Z,9.97
2023-02-16T20:58:39.456Z,10.87
2023-02-16T21:01:12.073Z,10.53
2023-02-16T21:03:40.272Z,10.17
2023-02-16T21:06:08.291Z,11.07
2023-02-16T21:08:36.238Z,10.43
2023-02-16T21:11:04.276Z,10.27
2023-02-16T21:13:33.092Z,10.87
2023-02-16T21:16:02.541Z,11.70
2023-02-16T21:18:30.536Z,10.27
2023-02-16T21:21:00.230Z,10.50
2023-02-16T21:23:28.310Z,10.40
2023-02-16T21:25:58.926Z,11.30
2023-02-16T21:28:27.277Z,11.80
2023-02-16T21:30:55.471Z,10.53
2023-02-16T21:33:24.885Z,10.17
2023-02-16T21:35:52.889Z,11.00
2023-02-16T21:38:20.790Z,12.30
2023-02-16T21:41:06.212Z,10.97
2023-02-16T21:43:35.412Z,10.97
2023-02-16T21:46:03.763Z,10.73
2023-02-16T21:48:47.856Z,14.97
2023-02-16T21:51:16.358Z,13.20
2023-02-16T21:53:44.279Z,11.43
2023-02-16T21:56:17.666Z,10.83
2023-02-16T21:58:45.642Z,11.17
2023-02-16T22:01:14.068Z,10.37
2023-02-16T22:03:43.504Z,11.03
2023-02-16T22:06:11.902Z,12.03
2023-02-16T22:08:39.810Z,10.50
2023-02-16T22:11:08.893Z,11.33
2023-02-16T22:13:37.058Z,10.77
2023-02-16T22:16:10.352Z,12.10
2023-02-16T22:18:38.546Z,10.67
2023-02-16T22:21:08.388Z,10.63
2023-02-16T22:23:36.394Z,11.57
2023-02-16T22:26:05.186Z,11.70
2023-02-16T22:28:33.563Z,11.33
2023-02-16T22:31:06.909Z,11.33
2023-02-16T22:33:34.911Z,11.10
2023-02-16T22:36:10.065Z,10.00
2023-02-16T22:38:38.030Z,9.70
2023-02-16T22:41:07.017Z,10.63
2023-02-16T22:43:35.423Z,9.50
2023-02-16T22:46:06.249Z,10.33
2023-02-16T22:48:34.588Z,10.70
2023-02-16T22:51:03.100Z,10.20
2023-02-16T22:53:32.648Z,10.07
2023-02-16T22:56:00.773Z,10.30
2023-02-16T22:58:28.776Z,10.87
2023-02-16T23:00:56.888Z,10.47
2023-02-16T23:03:24.902Z,10.90
2023-02-16T23:05:52.848Z,10.57
2023-02-16T23:08:23.225Z,11.33
2023-02-16T23:11:01.182Z,10.13
2023-02-16T23:13:29.291Z,13.00
2023-02-16T23:15:57.287Z,11.60
2023-02-16T23:18:25.259Z,11.57
2023-02-16T23:20:53.201Z,10.53
2023-02-16T23:23:21.172Z,11.30
2023-02-16T23:25:49.729Z,10.77
2023-02-16T23:28:19.138Z,10.93
2023-02-16T23:30:47.915Z,10.53
2023-02-16T23:33:16.027Z,10.17
2023-02-16T23:35:44.021Z,9.73
2023-02-16T23:38:13.784Z,10.63
2023-02-16T23:40:41.861Z,9.67
2023-02-16T23:43:09.853Z,10.17
2023-02-16T23:45:39.459Z,10.33
2023-02-16T23:48:07.500Z,10.00
2023-02-16T23:50:35.417Z,10.07
2023-02-16T23:53:03.859Z,10.23
2023-02-16T23:55:31.755Z,10.23
2023-02-16T23:57:59.698Z,9.43
